Airport, Ohio
Current Conditions -  °F | °C
As of 9:52 PM on Saturday 24 Jan 2015 (Local Time) from KCVG Reporting Station
Broken Clouds Broken Clouds  
Wind Chill: -2°   Ceiling: 12000
Heat Index:   Visibility: 8mi
Dew Point: -3°   Wind: 6mph
Humidity: 78%   Direction: 190°S
Pressure: 29.79"   Gusts: NA
Location:  39.0588°N, 84.6513°W
Report Text: KCVG 250252Z 19005KT 8SM BKN120 01/M03 A2979 RMK AO2 SLP094 T00061028 50005
Loading
Personal Weather Stations






























Interactive Weather Map New forecast layout! Learn more

10-Day Weather Forecast

Advertisements
Track Severe Weather on mobile